Time;durP1;ratioP1;P1;durP2;ratioP2;P2;SDS_P1;SDS_P2;PMS_P1;PMS_P2;Temp;Humidity;BMP_temperature;BMP_pressure;BME280_temperature;BME280_humidity;BME280_pressure;Samples;Min_cycle;Max_cycle;Signal;HPM_P1;HPM_P2
2022/09/18 00:00:38;;;;;;;2.50;0.77;;;13.80;80.00;;;;;;5074963;28;20029;-69
2022/09/18 00:03:04;;;;;;;7.22;1.20;;;13.70;80.20;;;;;;5074862;28;20029;-69
2022/09/18 00:05:30;;;;;;;6.43;1.13;;;13.70;80.10;;;;;;5073798;28;20032;-69
2022/09/18 00:07:56;;;;;;;3.33;0.70;;;13.70;80.30;;;;;;5074837;28;20057;-70
2022/09/18 00:10:21;;;;;;;3.72;0.98;;;13.70;80.20;;;;;;5073634;28;20052;-69
2022/09/18 00:12:47;;;;;;;4.55;0.82;;;13.70;80.40;;;;;;5073846;28;20055;-70
2022/09/18 00:15:12;;;;;;;2.97;0.63;;;13.70;80.30;;;;;;5074695;28;20043;-69
2022/09/18 00:17:38;;;;;;;7.03;0.98;;;13.70;81.10;;;;;;5074666;28;20100;-69
2022/09/18 00:20:04;;;;;;;3.35;0.70;;;13.70;80.30;;;;;;5074611;28;20087;-69
2022/09/18 00:22:30;;;;;;;3.60;0.70;;;13.70;80.60;;;;;;5074503;28;20025;-69
2022/09/18 00:24:56;;;;;;;5.40;1.00;;;13.70;80.70;;;;;;5074489;28;20029;-69
2022/09/18 00:27:21;;;;;;;5.63;0.70;;;13.70;80.80;;;;;;5056931;28;20033;-69
2022/09/18 00:29:47;;;;;;;3.92;0.50;;;13.70;80.80;;;;;;5073395;28;20064;-69
2022/09/18 00:32:13;;;;;;;3.10;0.77;;;13.70;80.80;;;;;;5074510;28;20029;-69
2022/09/18 00:34:40;;;;;;;2.03;0.60;;;13.70;80.80;;;;;;5074334;28;20033;-69
2022/09/18 00:37:06;;;;;;;3.13;0.82;;;13.70;80.60;;;;;;5074291;28;20037;-69
2022/09/18 00:39:31;;;;;;;5.95;0.85;;;13.70;80.70;;;;;;5073227;28;20032;-69
2022/09/18 00:41:57;;;;;;;4.20;0.90;;;13.70;80.70;;;;;;5074092;28;20033;-69
2022/09/18 00:44:43;;;;;;;5.47;0.70;;;13.60;80.60;;;;;;5074144;28;20032;-70
2022/09/18 00:47:09;;;;;;;2.10;0.68;;;13.60;81.10;;;;;;5074066;28;20025;-69
2022/09/18 00:49:45;;;;;;;1.80;0.85;;;13.50;81.30;;;;;;5074034;28;20049;-70
2022/09/18 00:52:12;;;;;;;4.93;1.15;;;13.50;81.90;;;;;;5074189;28;20025;-69
2022/09/18 00:54:41;;;;;;;7.45;1.33;;;13.40;82.00;;;;;;5073484;28;20032;-69
2022/09/18 00:57:15;;;;;;;6.63;1.75;;;13.40;82.10;;;;;;5073878;28;20028;-69
2022/09/18 00:59:44;;;;;;;9.55;1.10;;;13.40;82.00;;;;;;5072907;28;20025;-70
2022/09/18 01:02:11;;;;;;;2.20;0.70;;;13.40;82.50;;;;;;5073809;28;20032;-70
2022/09/18 01:04:37;;;;;;;5.38;0.95;;;13.30;82.40;;;;;;5073755;28;20052;-69
2022/09/18 01:07:28;;;;;;;3.45;0.70;;;13.30;82.70;;;;;;5073756;28;20037;-70
2022/09/18 01:10:12;;;;;;;3.67;0.57;;;13.30;82.80;;;;;;5073477;28;20119;-69
2022/09/18 01:12:55;;;;;;;7.20;1.20;;;13.40;83.10;;;;;;5073691;28;20028;-70
2022/09/18 01:15:33;;;;;;;2.90;0.77;;;13.40;83.10;;;;;;5073776;28;20532;-69
2022/09/18 01:17:59;;;;;;;2.15;0.77;;;13.40;83.20;;;;;;5073600;28;20029;-69
2022/09/18 01:20:47;;;;;;;3.75;0.90;;;13.40;82.90;;;;;;5073461;28;20055;-70
2022/09/18 01:23:34;;;;;;;3.13;1.10;;;13.50;82.80;;;;;;5072275;28;20029;-70
2022/09/18 01:26:37;;;;;;;6.32;1.10;;;13.40;83.10;;;;;;5073607;28;20047;-70
2022/09/18 01:29:26;;;;;;;;;;;13.40;83.00;;;;;;5073733;28;20073;-69
2022/09/18 01:32:22;;;;;;;3.90;1.00;;;13.40;83.30;;;;;;5067629;28;20275;-69
2022/09/18 01:34:57;;;;;;;5.47;1.30;;;13.30;83.30;;;;;;5072325;28;20035;-69
2022/09/18 01:37:31;;;;;;;3.60;0.90;;;13.30;83.20;;;;;;5073331;28;20028;-70
2022/09/18 01:40:06;;;;;;;5.95;0.95;;;13.40;83.30;;;;;;5072290;28;20036;-70
2022/09/18 01:42:34;;;;;;;6.07;1.20;;;13.40;83.40;;;;;;5073219;28;20040;-70
2022/09/18 01:45:05;;;;;;;3.53;0.90;;;13.40;83.30;;;;;;5073376;28;20025;-69
2022/09/18 01:47:37;;;;;;;7.10;1.10;;;13.50;83.40;;;;;;5073142;28;20020;-69
2022/09/18 01:50:05;;;;;;;1.92;1.00;;;13.40;83.20;;;;;;5073245;28;20017;-70
2022/09/18 01:52:41;;;;;;;4.60;0.68;;;13.40;83.10;;;;;;5072253;28;20088;-69
2022/09/18 01:55:13;;;;;;;5.88;1.02;;;13.40;83.40;;;;;;5073147;28;20025;-70
2022/09/18 01:58:02;;;;;;;5.90;0.95;;;13.40;83.30;;;;;;5073138;28;20070;-69
2022/09/18 02:00:30;;;;;;;4.88;1.05;;;13.40;83.30;;;;;;5073118;28;20029;-69
2022/09/18 02:03:14;;;;;;;2.50;0.75;;;13.40;83.30;;;;;;5072970;28;20089;-69
2022/09/18 02:05:50;;;;;;;5.32;1.00;;;13.30;83.60;;;;;;5072004;28;20025;-69
2022/09/18 02:08:30;;;;;;;2.92;0.80;;;13.30;84.10;;;;;;5076186;28;20361;-71
2022/09/18 02:11:22;;;;;;;3.95;1.08;;;13.30;84.10;;;;;;5077096;28;20029;-69
2022/09/18 02:13:59;;;;;;;2.70;0.90;;;13.20;84.80;;;;;;5075870;28;20033;-69
2022/09/18 02:16:28;;;;;;;3.15;0.90;;;13.20;84.30;;;;;;5076993;28;20028;-70
2022/09/18 02:18:56;;;;;;;4.78;0.90;;;13.30;84.50;;;;;;5076879;28;20025;-70
2022/09/18 02:21:27;;;;;;;4.88;0.95;;;13.30;84.70;;;;;;5076857;28;20017;-69
2022/09/18 02:23:59;;;;;;;3.92;0.75;;;13.30;84.70;;;;;;5076782;28;20017;-69
2022/09/18 02:26:25;;;;;;;3.67;1.08;;;13.30;85.10;;;;;;5076824;28;20025;-70
2022/09/18 02:28:53;;;;;;;3.85;0.77;;;13.30;84.60;;;;;;5076669;28;20021;-70
2022/09/18 02:31:18;;;;;;;0.88;0.50;;;13.30;84.80;;;;;;5076708;28;20021;-69
2022/09/18 02:33:44;;;;;;;3.03;1.00;;;13.30;84.70;;;;;;5076593;28;20036;-69
2022/09/18 02:36:31;;;;;;;3.50;0.98;;;13.30;84.80;;;;;;5076571;28;20039;-69
2022/09/18 02:39:06;;;;;;;3.03;0.82;;;13.30;84.70;;;;;;5076697;28;20460;-69
2022/09/18 02:41:50;;;;;;;4.93;0.90;;;13.30;84.70;;;;;;5076453;28;20024;-69
2022/09/18 02:44:28;;;;;;;2.40;0.80;;;13.30;84.80;;;;;;5076595;28;20116;-69
2022/09/18 02:47:13;;;;;;;5.32;0.90;;;13.20;85.40;;;;;;5075484;28;20025;-69
2022/09/18 02:50:14;;;;;;;1.98;0.50;;;13.20;85.20;;;;;;5076365;28;20025;-69
2022/09/18 02:52:51;;;;;;;2.70;0.60;;;13.20;85.40;;;;;;5076471;28;20022;-69
2022/09/18 02:55:32;;;;;;;4.10;0.80;;;13.20;85.20;;;;;;5076420;28;20036;-69
2022/09/18 02:58:05;;;;;;;5.15;0.60;;;13.20;85.20;;;;;;5076272;28;20025;-70
2022/09/18 03:00:31;;;;;;;2.25;0.65;;;13.20;85.10;;;;;;5076327;28;20025;-69
2022/09/18 03:02:58;;;;;;;1.60;0.68;;;13.20;85.50;;;;;;5076060;28;20536;-70
2022/09/18 03:05:25;;;;;;;2.53;1.23;;;13.20;85.40;;;;;;5076072;28;20036;-70
2022/09/18 03:07:51;;;;;;;1.58;1.05;;;13.20;85.60;;;;;;5076028;28;20028;-70
2022/09/18 03:10:17;;;;;;;5.32;0.80;;;13.20;85.50;;;;;;5075866;28;20144;-70
2022/09/18 03:12:42;;;;;;;2.50;0.65;;;13.20;85.60;;;;;;5075058;28;20123;-70
2022/09/18 03:15:09;;;;;;;3.65;0.80;;;13.20;85.50;;;;;;5075903;28;20369;-70
2022/09/18 03:17:35;;;;;;;5.75;1.02;;;13.30;85.70;;;;;;5074465;28;20036;-70
2022/09/18 03:20:02;;;;;;;2.30;0.63;;;13.30;85.50;;;;;;5075813;28;20029;-70
2022/09/18 03:22:27;;;;;;;4.78;1.30;;;13.30;85.50;;;;;;5075683;28;20025;-70
2022/09/18 03:24:53;;;;;;;4.90;1.23;;;13.40;85.30;;;;;;5074672;28;20083;-69
2022/09/18 03:27:19;;;;;;;5.28;1.40;;;13.40;85.30;;;;;;5075644;28;20029;-70
2022/09/18 03:29:44;;;;;;;2.60;1.38;;;13.30;85.10;;;;;;5075567;28;20033;-70
2022/09/18 03:32:10;;;;;;;5.60;1.67;;;13.30;85.20;;;;;;5075558;28;20041;-69
2022/09/18 03:34:37;;;;;;;3.53;1.73;;;13.30;85.20;;;;;;5075633;28;20055;-69
2022/09/18 03:37:03;;;;;;;5.53;1.90;;;13.30;85.60;;;;;;5075457;28;20052;-70
2022/09/18 03:39:28;;;;;;;5.47;1.90;;;13.20;85.60;;;;;;5074534;28;20029;-69
2022/09/18 03:41:54;;;;;;;4.82;1.50;;;13.30;85.60;;;;;;5074362;28;20025;-69
2022/09/18 03:44:20;;;;;;;3.17;1.77;;;13.20;85.80;;;;;;5075314;28;20032;-69
2022/09/18 03:46:45;;;;;;;3.70;1.90;;;13.20;86.10;;;;;;5075281;28;20099;-69
2022/09/18 03:49:11;;;;;;;4.50;1.65;;;13.10;86.20;;;;;;5075240;28;20081;-70
2022/09/18 03:51:36;;;;;;;2.85;1.45;;;13.10;86.20;;;;;;5075164;28;20029;-70
2022/09/18 03:54:02;;;;;;;6.35;1.38;;;13.10;86.40;;;;;;5075142;28;20025;-70
2022/09/18 03:56:28;;;;;;;3.78;1.60;;;13.10;86.30;;;;;;5075114;28;20044;-70
2022/09/18 03:58:53;;;;;;;5.28;1.55;;;13.10;86.30;;;;;;5074207;28;20036;-70
2022/09/18 04:01:19;;;;;;;4.63;1.45;;;13.10;86.20;;;;;;5075015;28;20025;-70
2022/09/18 04:03:46;;;;;;;4.90;1.63;;;13.10;86.20;;;;;;5073979;28;20032;-70
2022/09/18 04:06:11;;;;;;;8.23;1.88;;;13.10;86.00;;;;;;5073907;28;20027;-70
2022/09/18 04:08:37;;;;;;;5.25;1.30;;;13.10;86.00;;;;;;5074819;28;20041;-70
2022/09/18 04:11:04;;;;;;;5.82;1.67;;;13.10;86.20;;;;;;5074841;28;20036;-71
2022/09/18 04:13:30;;;;;;;5.88;1.38;;;13.10;86.20;;;;;;5074785;28;20025;-71
2022/09/18 04:15:56;;;;;;;3.97;1.50;;;13.10;86.20;;;;;;5074738;28;20386;-70
2022/09/18 04:18:22;;;;;;;3.65;1.15;;;13.20;86.20;;;;;;5073758;28;20036;-71
2022/09/18 04:20:50;;;;;;;2.03;1.30;;;13.10;86.30;;;;;;5074752;28;20028;-70
2022/09/18 04:23:16;;;;;;;1.65;0.88;;;13.20;86.00;;;;;;5074683;28;20028;-70
2022/09/18 04:25:42;;;;;;;2.50;1.20;;;13.20;86.10;;;;;;5074535;28;20013;-70
2022/09/18 04:28:09;;;;;;;3.75;1.10;;;13.20;86.00;;;;;;5074429;28;20028;-70
2022/09/18 04:30:35;;;;;;;2.67;0.95;;;13.20;86.00;;;;;;5073601;28;20498;-70
2022/09/18 04:33:01;;;;;;;3.90;0.77;;;13.30;86.00;;;;;;5073523;28;20035;-70
2022/09/18 04:35:26;;;;;;;4.53;0.85;;;13.30;86.20;;;;;;5074335;28;20045;-71
2022/09/18 04:37:52;;;;;;;4.10;0.80;;;13.30;85.90;;;;;;5074293;28;20032;-70
2022/09/18 04:40:19;;;;;;;6.43;1.50;;;13.30;85.60;;;;;;5074253;28;20031;-70
2022/09/18 04:42:44;;;;;;;7.03;0.88;;;13.30;85.80;;;;;;5074149;28;20025;-70
2022/09/18 04:45:10;;;;;;;3.58;1.27;;;13.30;85.80;;;;;;5074123;28;20085;-70
2022/09/18 04:47:36;;;;;;;2.67;0.80;;;13.20;86.10;;;;;;5074239;28;20017;-70
2022/09/18 04:50:03;;;;;;;1.73;0.82;;;13.20;85.90;;;;;;5074224;28;20029;-70
2022/09/18 04:52:29;;;;;;;3.50;1.10;;;13.20;86.30;;;;;;5074007;28;20035;-70
2022/09/18 04:54:54;;;;;;;6.93;1.15;;;13.20;86.50;;;;;;5073985;28;20052;-70
2022/09/18 04:57:20;;;;;;;5.82;1.05;;;13.20;86.40;;;;;;5073936;28;20025;-71
2022/09/18 04:59:45;;;;;;;2.60;0.95;;;13.20;86.50;;;;;;5073026;28;20496;-70
2022/09/18 05:02:11;;;;;;;6.70;1.13;;;13.20;86.30;;;;;;5073789;28;20021;-70
2022/09/18 05:04:36;;;;;;;4.63;0.80;;;13.20;86.40;;;;;;5072851;28;20036;-70
2022/09/18 05:07:03;;;;;;;4.18;0.80;;;13.20;86.40;;;;;;5073731;28;20060;-70
2022/09/18 05:09:30;;;;;;;4.40;0.77;;;13.20;86.50;;;;;;5073548;28;20091;-70
2022/09/18 05:11:56;;;;;;;2.08;0.70;;;13.10;86.50;;;;;;5073681;28;20021;-70
2022/09/18 05:14:21;;;;;;;2.58;0.88;;;13.10;86.50;;;;;;5073662;28;20025;-70
2022/09/18 05:16:47;;;;;;;4.03;0.80;;;13.10;86.50;;;;;;5072661;28;20033;-70
2022/09/18 05:19:13;;;;;;;4.68;0.90;;;13.20;86.40;;;;;;5073572;28;20028;-70
2022/09/18 05:21:38;;;;;;;5.20;1.40;;;13.10;86.30;;;;;;5072441;28;20029;-70
2022/09/18 05:24:04;;;;;;;6.95;1.17;;;13.20;86.30;;;;;;5073503;28;20032;-70
2022/09/18 05:26:30;;;;;;;3.47;1.30;;;13.10;86.50;;;;;;5073455;28;20052;-71
2022/09/18 05:28:55;;;;;;;2.55;0.93;;;13.10;86.80;;;;;;5073350;28;20037;-69
2022/09/18 05:31:21;;;;;;;8.68;0.80;;;13.10;86.80;;;;;;5073373;28;20025;-70
2022/09/18 05:33:47;;;;;;;3.22;0.70;;;13.10;87.90;;;;;;5072351;28;20025;-70
2022/09/18 05:36:12;;;;;;;2.97;1.05;;;13.10;87.20;;;;;;5055728;28;20049;-70
2022/09/18 05:38:38;;;;;;;1.08;0.50;;;13.10;87.00;;;;;;5073315;28;20021;-70
2022/09/18 05:41:04;;;;;;;2.80;0.52;;;13.10;86.80;;;;;;5072173;28;20384;-71
2022/09/18 05:43:30;;;;;;;5.90;1.27;;;13.10;86.90;;;;;;5072966;28;20040;-71
2022/09/18 05:45:56;;;;;;;4.00;0.70;;;13.10;87.00;;;;;;5073205;28;20025;-70
2022/09/18 05:48:22;;;;;;;6.25;0.90;;;13.10;86.90;;;;;;5073198;28;20017;-70
2022/09/18 05:50:50;;;;;;;2.30;0.65;;;13.20;86.90;;;;;;5073289;28;20029;-70
2022/09/18 05:53:18;;;;;;;1.05;0.60;;;13.10;87.10;;;;;;5073153;28;20025;-70
2022/09/18 05:55:44;;;;;;;5.05;0.90;;;13.10;87.00;;;;;;5073138;28;20044;-70
2022/09/18 05:58:15;;;;;;;4.95;0.60;;;13.20;86.80;;;;;;5072163;28;20033;-71
2022/09/18 06:00:43;;;;;;;3.83;0.70;;;13.20;87.10;;;;;;5072019;28;20032;-70
2022/09/18 06:03:10;;;;;;;5.20;0.77;;;13.20;87.20;;;;;;5072987;28;20021;-71
2022/09/18 06:05:37;;;;;;;2.30;0.50;;;13.20;87.20;;;;;;5073044;28;20062;-71
2022/09/18 06:08:08;;;;;;;3.53;0.77;;;13.20;87.00;;;;;;5072942;28;20035;-71
2022/09/18 06:10:36;;;;;;;2.35;0.45;;;13.30;86.90;;;;;;5072838;28;20061;-71
2022/09/18 06:13:14;;;;;;;2.20;0.40;;;13.30;86.80;;;;;;5072954;28;20058;-71
2022/09/18 06:15:46;;;;;;;6.45;1.27;;;13.30;86.60;;;;;;5071975;28;20032;-70
2022/09/18 06:18:13;;;;;;;3.88;0.50;;;13.40;86.30;;;;;;5073114;28;20085;-71
2022/09/18 06:20:42;;;;;;;2.97;0.60;;;13.30;86.30;;;;;;5072025;28;20056;-71
2022/09/18 06:23:09;;;;;;;3.67;0.70;;;13.40;86.30;;;;;;5072803;28;20031;-71
2022/09/18 06:25:35;;;;;;;3.70;0.60;;;13.40;86.30;;;;;;5072857;28;20048;-71
2022/09/18 06:28:01;;;;;;;5.07;0.95;;;13.40;86.40;;;;;;5072724;28;20024;-70
2022/09/18 06:30:29;;;;;;;2.90;0.73;;;13.40;86.30;;;;;;5072842;28;20067;-71
2022/09/18 06:32:59;;;;;;;4.07;0.70;;;13.30;86.30;;;;;;5072739;28;20025;-71
2022/09/18 06:35:25;;;;;;;6.20;0.70;;;13.30;86.60;;;;;;5072895;28;20021;-71
2022/09/18 06:37:51;;;;;;;5.28;0.77;;;13.30;86.80;;;;;;5071707;28;20472;-71
2022/09/18 06:40:16;;;;;;;2.00;0.85;;;13.30;86.90;;;;;;5072699;28;20050;-71
2022/09/18 06:42:42;;;;;;;2.97;0.95;;;13.40;86.80;;;;;;5072598;28;20037;-71
2022/09/18 06:45:08;;;;;;;1.55;0.50;;;13.40;86.80;;;;;;5072640;28;20033;-70
2022/09/18 06:47:34;;;;;;;5.25;0.80;;;13.40;86.80;;;;;;5071670;28;20021;-71
2022/09/18 06:49:59;;;;;;;1.85;0.57;;;13.40;86.60;;;;;;5071628;28;20391;-71
2022/09/18 06:52:25;;;;;;;3.47;0.68;;;13.50;86.40;;;;;;5071687;28;20029;-70
2022/09/18 06:54:50;;;;;;;3.03;0.40;;;13.50;86.20;;;;;;5076289;28;20033;-71
2022/09/18 06:57:16;;;;;;;2.75;0.70;;;13.60;86.20;;;;;;5076245;28;20088;-71
2022/09/18 06:59:41;;;;;;;4.00;0.50;;;13.60;85.90;;;;;;5076188;28;20022;-70
2022/09/18 07:02:13;;;;;;;2.20;0.40;;;13.60;86.00;;;;;;5076045;28;20025;-71
2022/09/18 07:04:39;;;;;;;2.42;0.60;;;13.60;85.90;;;;;;5075121;28;20021;-70
2022/09/18 07:07:06;;;;;;;1.17;0.52;;;13.70;85.80;;;;;;5076053;28;20028;-70
2022/09/18 07:09:32;;;;;;;2.22;0.52;;;13.80;85.60;;;;;;5074874;28;20049;-70
2022/09/18 07:11:58;;;;;;;2.05;0.50;;;13.80;85.30;;;;;;5074927;28;20067;-71
2022/09/18 07:14:24;;;;;;;2.65;0.47;;;13.80;85.40;;;;;;5058492;28;20025;-70
2022/09/18 07:16:50;;;;;;;1.60;0.40;;;13.80;85.50;;;;;;5074811;28;20040;-70
2022/09/18 07:19:15;;;;;;;2.53;0.50;;;13.80;85.40;;;;;;5058112;28;20037;-71
2022/09/18 07:21:41;;;;;;;2.15;0.40;;;13.70;85.50;;;;;;5075713;28;20080;-70
2022/09/18 07:24:06;;;;;;;2.80;0.52;;;13.70;85.90;;;;;;5074837;28;20033;-70
2022/09/18 07:26:32;;;;;;;3.20;0.60;;;13.70;85.80;;;;;;5075730;28;20029;-70
2022/09/18 07:28:58;;;;;;;6.15;0.80;;;13.70;86.80;;;;;;5074717;28;20055;-70
2022/09/18 07:31:23;;;;;;;2.60;0.50;;;13.80;86.00;;;;;;5075599;28;20029;-70
2022/09/18 07:33:51;;;;;;;2.45;0.43;;;13.80;85.80;;;;;;5075590;28;20036;-70
2022/09/18 07:36:17;;;;;;;4.10;0.57;;;13.80;85.70;;;;;;5075522;28;20021;-70
2022/09/18 07:38:42;;;;;;;0.68;0.30;;;13.70;85.70;;;;;;5074408;28;20059;-70
2022/09/18 07:41:08;;;;;;;2.67;0.70;;;13.70;85.70;;;;;;5075428;28;20084;-71
2022/09/18 07:43:33;;;;;;;2.22;0.43;;;13.80;85.90;;;;;;5075296;28;20025;-71
2022/09/18 07:45:59;;;;;;;2.65;0.45;;;13.80;85.60;;;;;;5075311;28;20037;-71
2022/09/18 07:48:25;;;;;;;2.72;0.60;;;13.70;85.80;;;;;;5075259;28;20093;-70
2022/09/18 07:50:50;;;;;;;1.15;0.50;;;13.70;85.90;;;;;;5057677;28;20085;-70
2022/09/18 07:53:17;;;;;;;1.25;0.32;;;13.70;86.00;;;;;;5075174;28;20044;-70
2022/09/18 07:55:46;;;;;;;2.80;0.47;;;13.70;85.90;;;;;;5074120;28;20029;-71
2022/09/18 07:58:12;;;;;;;1.80;0.32;;;13.80;86.00;;;;;;5074135;28;20021;-70
2022/09/18 08:00:37;;;;;;;0.80;0.40;;;13.80;86.00;;;;;;5074116;28;20045;-70
2022/09/18 08:03:05;;;;;;;4.15;0.82;;;13.80;85.90;;;;;;5074929;28;20036;-71
2022/09/18 08:05:31;;;;;;;2.78;0.43;;;13.80;85.80;;;;;;5073735;28;20025;-70
2022/09/18 08:08:04;;;;;;;4.07;0.70;;;13.80;85.80;;;;;;5074927;28;20361;-70
2022/09/18 08:10:31;;;;;;;3.42;0.50;;;13.80;86.90;;;;;;5074730;28;20049;-70
2022/09/18 08:12:56;;;;;;;1.98;0.60;;;13.80;86.40;;;;;;5074820;28;20029;-70
2022/09/18 08:15:22;;;;;;;2.00;0.50;;;13.70;86.50;;;;;;5074775;28;20033;-70
2022/09/18 08:17:48;;;;;;;1.75;0.70;;;13.80;86.50;;;;;;5073820;28;20078;-70
2022/09/18 08:20:13;;;;;;;4.80;0.70;;;13.90;86.70;;;;;;5073726;28;20033;-70
2022/09/18 08:22:40;;;;;;;3.30;0.55;;;13.90;86.60;;;;;;5056982;28;20029;-70
2022/09/18 08:25:07;;;;;;;3.58;0.85;;;13.90;86.90;;;;;;5074580;28;20052;-70
2022/09/18 08:27:37;;;;;;;3.35;0.98;;;13.90;87.10;;;;;;5074507;28;20025;-70
2022/09/18 08:30:04;;;;;;;2.92;0.80;;;13.90;87.00;;;;;;5074408;28;20033;-70
2022/09/18 08:32:31;;;;;;;5.88;1.02;;;13.90;87.40;;;;;;5073456;28;20051;-70
2022/09/18 08:34:59;;;;;;;5.55;1.17;;;13.90;87.20;;;;;;5074527;28;20047;-70
2022/09/18 08:37:25;;;;;;;1.63;0.70;;;14.00;87.60;;;;;;5074336;28;20025;-70
2022/09/18 08:39:51;;;;;;;3.65;1.25;;;14.00;87.50;;;;;;5074294;28;20075;-71
2022/09/18 08:42:34;;;;;;;3.03;1.00;;;14.10;87.30;;;;;;5056524;28;20025;-70
2022/09/18 08:45:26;;;;;;;7.75;1.33;;;14.10;87.80;;;;;;5074245;28;20021;-70
2022/09/18 08:47:59;;;;;;;5.70;1.50;;;14.10;87.70;;;;;;5073216;28;20164;-70
2022/09/18 08:50:31;;;;;;;4.57;1.55;;;14.10;87.40;;;;;;5073092;28;20024;-70
2022/09/18 08:53:10;;;;;;;5.28;1.65;;;14.10;87.30;;;;;;5074075;28;20047;-70
2022/09/18 08:55:40;;;;;;;2.13;1.48;;;14.20;87.70;;;;;;5074056;28;20032;-70
2022/09/18 08:58:12;;;;;;;3.95;1.80;;;14.30;87.70;;;;;;5074087;28;20017;-70
2022/09/18 09:00:43;;;;;;;6.70;1.58;;;14.40;87.10;;;;;;5073949;28;20040;-70
2022/09/18 09:03:37;;;;;;;4.78;1.55;;;14.50;87.20;;;;;;5073705;28;20025;-70
2022/09/18 09:06:32;;;;;;;2.60;1.67;;;14.60;86.80;;;;;;5073987;28;20029;-70
2022/09/18 09:09:16;;;;;;;4.60;1.60;;;14.60;86.40;;;;;;5073577;28;20049;-70
2022/09/18 09:11:48;;;;;;;4.20;1.67;;;14.60;86.50;;;;;;5073874;28;20052;-69
2022/09/18 09:14:24;;;;;;;4.28;1.60;;;14.50;86.00;;;;;;5072785;28;20111;-70
2022/09/18 09:16:51;;;;;;;2.38;1.58;;;14.50;86.00;;;;;;5073305;28;20025;-69
2022/09/18 09:19:27;;;;;;;3.90;1.10;;;14.60;85.60;;;;;;5073589;28;20017;-70
2022/09/18 09:22:21;;;;;;;2.92;0.93;;;14.60;84.80;;;;;;5073506;28;20066;-70
2022/09/18 09:25:08;;;;;;;3.78;0.98;;;14.70;84.70;;;;;;5073675;28;20031;-69
2022/09/18 09:27:48;;;;;;;5.30;0.98;;;14.70;84.00;;;;;;5073479;28;20021;-70
2022/09/18 09:30:17;;;;;;;3.90;0.98;;;14.70;83.90;;;;;;5073376;28;20080;-70
2022/09/18 09:33:01;;;;;;;3.28;0.80;;;14.70;84.20;;;;;;5073401;28;20025;-70
2022/09/18 09:35:37;;;;;;;4.00;0.93;;;14.70;84.00;;;;;;5072395;28;20029;-70
2022/09/18 09:38:24;;;;;;;6.93;1.25;;;14.70;84.20;;;;;;5073353;28;20032;-70
2022/09/18 09:40:51;;;;;;;2.05;0.85;;;14.60;84.50;;;;;;5072322;28;20021;-70
2022/09/18 09:43:46;;;;;;;2.33;0.68;;;14.50;85.10;;;;;;5073210;28;20025;-70
2022/09/18 09:46:35;;;;;;;3.55;0.77;;;14.50;85.60;;;;;;5073295;28;20017;-70
2022/09/18 09:49:10;;;;;;;3.67;0.98;;;14.50;85.50;;;;;;5073288;28;20029;-69
2022/09/18 09:52:01;;;;;;;2.55;0.50;;;14.50;84.70;;;;;;5073195;28;20044;-69
2022/09/18 09:54:27;;;;;;;4.07;0.60;;;14.50;83.80;;;;;;5070000;28;20056;-69
2022/09/18 09:57:18;;;;;;;4.45;0.55;;;14.60;84.20;;;;;;5073122;28;20040;-69
2022/09/18 09:59:51;;;;;;;1.48;0.55;;;14.70;84.10;;;;;;5072170;28;20029;-69
2022/09/18 10:03:05;;;;;;;1.42;0.70;;;14.80;84.20;;;;;;5071999;28;20029;-68
2022/09/18 10:05:41;;;;;;;3.67;0.60;;;14.90;83.50;;;;;;5054234;28;20025;-69
2022/09/18 10:08:44;;;;;;;2.55;0.40;;;15.00;83.10;;;;;;5073043;28;20029;-69
2022/09/18 10:11:12;;;;;;;0.60;0.32;;;15.10;81.20;;;;;;5073009;28;20101;-69
2022/09/18 10:14:16;;;;;;;2.03;0.40;;;15.10;82.10;;;;;;5072235;28;20025;-69
2022/09/18 10:16:48;;;;;;;3.20;0.40;;;15.10;81.90;;;;;;5072599;28;20507;-69
2022/09/18 10:19:17;;;;;;;1.52;0.50;;;15.10;82.00;;;;;;5072947;28;20033;-69
2022/09/18 10:21:45;;;;;;;7.32;1.75;;;15.10;82.30;;;;;;5071832;28;20029;-69
2022/09/18 10:24:16;;;;;;;1.90;0.40;;;15.10;82.50;;;;;;5072911;28;20021;-69
2022/09/18 10:26:50;;;;;;;1.67;0.43;;;15.20;82.60;;;;;;5072906;28;20025;-69
2022/09/18 10:29:17;;;;;;;1.73;0.43;;;15.10;82.80;;;;;;5075826;28;20268;-70
2022/09/18 10:32:05;;;;;;;1.10;0.40;;;15.10;82.70;;;;;;5076761;28;20035;-70
2022/09/18 10:34:48;;;;;;;1.77;0.60;;;15.00;82.70;;;;;;5076000;28;20021;-70
2022/09/18 10:37:28;;;;;;;3.03;0.60;;;14.90;83.20;;;;;;5075717;28;20029;-70
2022/09/18 10:40:00;;;;;;;4.40;0.38;;;14.90;83.50;;;;;;5076781;28;20025;-70
2022/09/18 10:42:28;;;;;;;0.88;0.47;;;14.80;83.50;;;;;;5076558;28;20029;-69
2022/09/18 10:45:03;;;;;;;1.15;0.50;;;14.70;83.60;;;;;;5076490;28;20021;-69
2022/09/18 10:47:33;;;;;;;6.07;0.57;;;14.70;84.80;;;;;;5076662;28;20028;-70
2022/09/18 10:50:17;;;;;;;2.63;0.68;;;14.70;84.10;;;;;;5076610;28;20059;-70
2022/09/18 10:52:47;;;;;;;2.00;0.60;;;14.70;84.40;;;;;;5075481;28;20687;-70
2022/09/18 10:55:25;;;;;;;2.47;0.40;;;14.60;84.20;;;;;;5076388;28;20033;-70
2022/09/18 10:57:53;;;;;;;2.83;0.52;;;14.50;84.30;;;;;;5076293;28;20060;-70
2022/09/18 11:00:19;;;;;;;2.85;0.50;;;14.50;84.40;;;;;;5075196;28;20096;-70
2022/09/18 11:02:55;;;;;;;2.10;0.40;;;14.50;84.40;;;;;;5076070;28;20032;-69
2022/09/18 11:05:25;;;;;;;1.25;0.60;;;14.50;84.80;;;;;;5076322;28;20013;-70
2022/09/18 11:07:53;;;;;;;0.40;0.30;;;14.50;84.80;;;;;;5075334;28;20024;-70
2022/09/18 11:10:22;;;;;;;2.85;0.40;;;14.50;84.80;;;;;;5075796;28;20048;-70
2022/09/18 11:12:57;;;;;;;1.35;0.50;;;14.60;84.80;;;;;;5075211;28;20021;-70
2022/09/18 11:15:35;;;;;;;2.10;0.60;;;14.60;84.80;;;;;;5076131;28;20075;-69
2022/09/18 11:18:06;;;;;;;3.17;0.55;;;14.70;84.90;;;;;;5076072;28;20037;-69
2022/09/18 11:20:38;;;;;;;1.60;0.43;;;14.70;85.50;;;;;;5075834;28;20032;-69
2022/09/18 11:23:14;;;;;;;;;;;14.80;85.40;;;;;;5076172;28;20044;-70
2022/09/18 11:25:40;;;;;;;1.13;0.40;;;14.80;85.40;;;;;;5075727;28;19905;-70
2022/09/18 11:28:27;;;;;;;1.35;0.70;;;14.80;85.20;;;;;;5074867;28;20021;-69
2022/09/18 11:31:10;;;;;;;2.05;0.40;;;14.80;85.10;;;;;;5075816;28;20025;-69
2022/09/18 11:33:38;;;;;;;;;;;14.80;85.20;;;;;;5076043;28;20085;-69
2022/09/18 11:36:10;;;;;;;2.85;0.50;;;14.80;85.10;;;;;;5075524;28;19912;-69
2022/09/18 11:38:46;;;;;;;1.00;0.50;;;14.70;85.50;;;;;;5075220;28;20032;-69
2022/09/18 11:41:19;;;;;;;1.60;0.73;;;14.70;84.90;;;;;;5075442;28;20033;-70
2022/09/18 11:43:52;;;;;;;2.55;0.63;;;14.80;85.10;;;;;;5075348;28;20032;-69
2022/09/18 11:46:48;;;;;;;6.65;0.75;;;14.80;84.90;;;;;;5074520;28;20025;-69
2022/09/18 11:49:20;;;;;;;2.20;0.60;;;14.80;84.60;;;;;;5075422;28;20032;-70
2022/09/18 11:51:55;;;;;;;1.00;0.63;;;14.80;84.30;;;;;;5075167;28;20047;-69
2022/09/18 11:54:30;;;;;;;1.33;0.63;;;14.90;84.60;;;;;;5075250;28;20021;-69
2022/09/18 11:57:00;;;;;;;3.80;0.95;;;14.90;84.50;;;;;;5075318;28;20016;-69
2022/09/18 11:59:31;;;;;;;1.55;0.75;;;14.90;84.70;;;;;;5075166;28;20047;-70
2022/09/18 12:02:03;;;;;;;5.03;0.80;;;15.00;84.50;;;;;;5075005;28;20013;-69
2022/09/18 12:04:48;;;;;;;4.10;0.57;;;15.00;84.30;;;;;;5075057;28;20047;-69
2022/09/18 12:07:36;;;;;;;2.03;0.77;;;15.00;83.70;;;;;;5074915;28;20103;-69
2022/09/18 12:10:25;;;;;;;1.05;0.63;;;15.00;84.00;;;;;;5074568;28;20092;-69
2022/09/18 12:12:59;;;;;;;3.35;0.52;;;15.00;84.00;;;;;;5074697;28;20033;-69
2022/09/18 12:15:35;;;;;;;3.35;0.70;;;15.00;84.20;;;;;;5073640;28;20029;-70
2022/09/18 12:18:08;;;;;;;2.63;0.60;;;15.00;84.20;;;;;;5074298;28;20447;-69
2022/09/18 12:20:43;;;;;;;4.43;0.80;;;15.00;84.20;;;;;;5074638;28;20472;-70
2022/09/18 12:23:14;;;;;;;4.63;1.08;;;15.10;84.40;;;;;;5074276;28;20025;-69
2022/09/18 12:25:52;;;;;;;3.83;0.57;;;15.10;84.40;;;;;;5074449;28;20037;-69
2022/09/18 12:28:43;;;;;;;1.80;0.60;;;15.10;84.50;;;;;;5074477;28;20040;-70
2022/09/18 12:31:37;;;;;;;4.72;0.52;;;15.10;84.20;;;;;;5074387;28;20037;-69
2022/09/18 12:34:41;;;;;;;2.97;0.50;;;15.00;84.20;;;;;;5074211;28;20032;-69
2022/09/18 12:37:14;;;;;;;4.40;0.57;;;15.00;84.20;;;;;;5065554;28;20038;-69
2022/09/18 12:40:01;;;;;;;2.35;0.85;;;14.90;84.00;;;;;;5074320;28;20036;-69
2022/09/18 12:42:38;;;;;;;4.13;1.13;;;14.90;84.10;;;;;;5074137;28;20029;-69
2022/09/18 12:45:22;;;;;;;2.90;0.88;;;14.90;84.50;;;;;;5073291;28;20434;-69
2022/09/18 12:48:33;;;;;;;3.63;0.70;;;14.80;84.70;;;;;;5074228;28;20134;-69
2022/09/18 12:51:11;;;;;;;1.45;0.50;;;14.80;84.20;;;;;;5072144;28;20036;-69
2022/09/18 12:53:51;;;;;;;2.60;0.50;;;14.80;84.80;;;;;;5074053;28;20032;-69
2022/09/18 12:56:32;;;;;;;2.95;0.60;;;14.70;84.90;;;;;;5074175;28;20028;-70
2022/09/18 12:59:32;;;;;;;1.67;0.40;;;14.70;85.20;;;;;;5074149;28;20040;-69
2022/09/18 13:02:15;;;;;;;2.33;0.40;;;14.70;84.90;;;;;;5050547;28;20127;-69
2022/09/18 13:04:47;;;;;;;3.17;0.70;;;14.70;84.90;;;;;;5073950;28;20369;-69
2022/09/18 13:07:16;;;;;;;;;;;14.70;84.90;;;;;;5074261;28;20044;-70
2022/09/18 13:10:04;;;;;;;4.22;0.98;;;14.70;84.90;;;;;;5073604;28;19916;-69
2022/09/18 13:12:45;;;;;;;6.13;0.90;;;14.70;84.90;;;;;;5073773;28;20120;-69